Hlavní strana
METAR-TAF:

METAR-TAF

Letiště :

Algeciras, Španělsko

zeměpisná šířka: 36-07-44N, zeměpisná délka: 05-26-28W, výška: 30 m

Aktuální stav počasí

Zpráva byla vytvořena před 11 minutami, v 12:00 UTC
Východní vítr 11 kt, proměnlivý mezi východoseverovýchodním a východojihovýchodním
Teplota 14°C
Vlhkost vzduchu 94%
Tlak 1014 hPa
Viditelnost 10 km a více
Polojasno ve výšce 900 ft
Oblačno až skoro zataženo ve výšce 1300 ft
Zataženo ve výšce 1500 ft

METAR: LEAG 151200Z AUTO 09011KT 060V120 9999 SCT009 BKN013 OVC015 14/13 Q1014

Čas: 14:11 (12:11 UTC)


TAF: chybějící

Stav a předpovědi počasí z více než 4 000 letišť (zprávy METAR a TAF).

Červené a žluté tečky na mapě představují dostupné meteorologické stanice.

Když kurzor umístíte na tečku, zobrazí se název stanice.

Pak kliknutím zobrazíte stav a předpověď počasí.

Chcete-li změnit mapu, kliknutím na zelené tlačítko se znaménkem +mapu přiblížíte, kliknutím na zelené tlačítko se znaménkem – mapu oddálíte a kliknutím na zelené šipky přejdete na sousední mapy.


METAR-TAF: